sensor_id;sensor_type;location;lat;lon;timestamp;temperature;humidity
18163;DHT22;9206;50.994;4.538;2023-07-30T00:34:19;15.60;99.90
18163;DHT22;9206;50.994;4.538;2023-07-30T00:44:30;15.60;99.90
18163;DHT22;9206;50.994;4.538;2023-07-30T01:54:01;15.60;99.90
18163;DHT22;9206;50.994;4.538;2023-07-30T04:07:50;16.00;99.90
18163;DHT22;9206;50.994;4.538;2023-07-30T04:40:18;15.90;99.90
18163;DHT22;9206;50.994;4.538;2023-07-30T07:29:54;22.50;99.90
18163;DHT22;9206;50.994;4.538;2023-07-30T08:21:47;21.10;99.90
18163;DHT22;9206;50.994;4.538;2023-07-30T09:20:13;19.40;99.90
18163;DHT22;9206;50.994;4.538;2023-07-30T10:03:49;18.60;99.90
18163;DHT22;9206;50.994;4.538;2023-07-30T10:06:40;18.40;99.90
18163;DHT22;9206;50.994;4.538;2023-07-30T10:35:45;22.80;99.90
18163;DHT22;9206;50.994;4.538;2023-07-30T11:15:57;25.80;99.90
18163;DHT22;9206;50.994;4.538;2023-07-30T11:30:02;26.40;99.90
18163;DHT22;9206;50.994;4.538;2023-07-30T13:46:25;25.60;99.90
18163;DHT22;9206;50.994;4.538;2023-07-30T13:49:13;25.80;99.90
18163;DHT22;9206;50.994;4.538;2023-07-30T13:52:00;25.60;99.90
18163;DHT22;9206;50.994;4.538;2023-07-30T13:54:53;25.70;99.90
18163;DHT22;9206;50.994;4.538;2023-07-30T13:57:45;25.10;99.90
18163;DHT22;9206;50.994;4.538;2023-07-30T14:01:15;25.10;99.90
18163;DHT22;9206;50.994;4.538;2023-07-30T14:04:30;25.10;99.90
18163;DHT22;9206;50.994;4.538;2023-07-30T14:08:07;25.10;99.90
18163;DHT22;9206;50.994;4.538;2023-07-30T14:11:02;25.60;99.90
18163;DHT22;9206;50.994;4.538;2023-07-30T14:13:51;25.60;99.90
18163;DHT22;9206;50.994;4.538;2023-07-30T14:16:44;25.50;99.90
18163;DHT22;9206;50.994;4.538;2023-07-30T14:20:04;25.40;99.90
18163;DHT22;9206;50.994;4.538;2023-07-30T14:23:34;25.40;99.90
18163;DHT22;9206;50.994;4.538;2023-07-30T14:26:57;25.50;99.90
18163;DHT22;9206;50.994;4.538;2023-07-30T14:33:31;24.80;99.90
18163;DHT22;9206;50.994;4.538;2023-07-30T14:36:26;24.20;99.90
18163;DHT22;9206;50.994;4.538;2023-07-30T14:39:15;24.00;99.90
18163;DHT22;9206;50.994;4.538;2023-07-30T14:42:21;23.90;99.90
18163;DHT22;9206;50.994;4.538;2023-07-30T14:45:17;23.80;99.90
18163;DHT22;9206;50.994;4.538;2023-07-30T14:48:12;23.70;99.90
18163;DHT22;9206;50.994;4.538;2023-07-30T14:51:00;24.00;99.90
18163;DHT22;9206;50.994;4.538;2023-07-30T14:53:52;24.30;99.90
18163;DHT22;9206;50.994;4.538;2023-07-30T14:56:45;24.50;99.90
18163;DHT22;9206;50.994;4.538;2023-07-30T14:59:34;24.50;99.90
18163;DHT22;9206;50.994;4.538;2023-07-30T15:02:30;24.30;99.90
18163;DHT22;9206;50.994;4.538;2023-07-30T15:05:46;24.10;99.90
18163;DHT22;9206;50.994;4.538;2023-07-30T15:09:09;23.50;99.90
18163;DHT22;9206;50.994;4.538;2023-07-30T15:11:59;23.10;99.90
18163;DHT22;9206;50.994;4.538;2023-07-30T15:14:48;23.00;99.90
18163;DHT22;9206;50.994;4.538;2023-07-30T15:17:35;23.00;99.90
18163;DHT22;9206;50.994;4.538;2023-07-30T15:20:29;22.80;99.90
18163;DHT22;9206;50.994;4.538;2023-07-30T15:23:19;22.60;99.90
18163;DHT22;9206;50.994;4.538;2023-07-30T15:29:48;22.10;99.90
18163;DHT22;9206;50.994;4.538;2023-07-30T15:32:42;21.70;99.90
18163;DHT22;9206;50.994;4.538;2023-07-30T15:39:41;21.10;99.90
18163;DHT22;9206;50.994;4.538;2023-07-30T15:42:42;21.00;99.90
18163;DHT22;9206;50.994;4.538;2023-07-30T15:45:38;20.70;99.90
18163;DHT22;9206;50.994;4.538;2023-07-30T15:49:21;20.60;99.90
18163;DHT22;9206;50.994;4.538;2023-07-30T15:52:30;20.40;99.90
18163;DHT22;9206;50.994;4.538;2023-07-30T15:55:37;20.30;99.90
18163;DHT22;9206;50.994;4.538;2023-07-30T15:58:30;20.20;99.90
18163;DHT22;9206;50.994;4.538;2023-07-30T16:01:20;20.00;99.90
18163;DHT22;9206;50.994;4.538;2023-07-30T16:04:09;20.00;99.90
18163;DHT22;9206;50.994;4.538;2023-07-30T16:06:58;19.90;99.90
18163;DHT22;9206;50.994;4.538;2023-07-30T16:13:32;19.60;99.90
18163;DHT22;9206;50.994;4.538;2023-07-30T16:16:39;19.50;99.90
18163;DHT22;9206;50.994;4.538;2023-07-30T16:20:04;19.50;99.90
18163;DHT22;9206;50.994;4.538;2023-07-30T17:47:24;17.40;99.90
18163;DHT22;9206;50.994;4.538;2023-07-30T17:50:31;17.40;99.90
18163;DHT22;9206;50.994;4.538;2023-07-30T17:53:37;17.40;99.90
18163;DHT22;9206;50.994;4.538;2023-07-30T17:56:33;17.40;99.90
18163;DHT22;9206;50.994;4.538;2023-07-30T18:03:05;17.40;99.90
18163;DHT22;9206;50.994;4.538;2023-07-30T18:06:10;17.40;99.90
18163;DHT22;9206;50.994;4.538;2023-07-30T18:09:13;17.30;99.90
18163;DHT22;9206;50.994;4.538;2023-07-30T18:12:36;17.20;99.90
18163;DHT22;9206;50.994;4.538;2023-07-30T18:15:23;17.20;99.90
18163;DHT22;9206;50.994;4.538;2023-07-30T18:18:30;17.20;99.90
18163;DHT22;9206;50.994;4.538;2023-07-30T18:21:44;17.20;99.90
18163;DHT22;9206;50.994;4.538;2023-07-30T18:24:42;17.20;99.90
18163;DHT22;9206;50.994;4.538;2023-07-30T18:27:41;17.20;99.90
18163;DHT22;9206;50.994;4.538;2023-07-30T18:30:29;17.20;99.90
18163;DHT22;9206;50.994;4.538;2023-07-30T18:33:19;17.20;99.90
18163;DHT22;9206;50.994;4.538;2023-07-30T18:36:22;17.20;99.90
18163;DHT22;9206;50.994;4.538;2023-07-30T18:39:48;17.20;99.90
18163;DHT22;9206;50.994;4.538;2023-07-30T18:42:52;17.20;99.90
18163;DHT22;9206;50.994;4.538;2023-07-30T18:45:45;17.20;99.90
18163;DHT22;9206;50.994;4.538;2023-07-30T18:48:43;17.20;99.90
18163;DHT22;9206;50.994;4.538;2023-07-30T18:51:54;17.20;99.90
18163;DHT22;9206;50.994;4.538;2023-07-30T18:58:44;17.30;99.90
18163;DHT22;9206;50.994;4.538;2023-07-30T19:01:37;17.20;99.90
18163;DHT22;9206;50.994;4.538;2023-07-30T19:04:59;17.20;99.90
18163;DHT22;9206;50.994;4.538;2023-07-30T19:08:19;17.20;99.90
18163;DHT22;9206;50.994;4.538;2023-07-30T19:11:25;17.20;99.90
18163;DHT22;9206;50.994;4.538;2023-07-30T19:17:49;17.20;99.90
18163;DHT22;9206;50.994;4.538;2023-07-30T19:24:25;17.10;99.90
18163;DHT22;9206;50.994;4.538;2023-07-30T19:27:22;17.10;99.90
18163;DHT22;9206;50.994;4.538;2023-07-30T19:33:28;17.20;99.90
18163;DHT22;9206;50.994;4.538;2023-07-30T19:36:17;17.20;99.90
18163;DHT22;9206;50.994;4.538;2023-07-30T19:39:24;17.20;99.90
18163;DHT22;9206;50.994;4.538;2023-07-30T19:49:30;17.20;99.90
18163;DHT22;9206;50.994;4.538;2023-07-30T19:56:47;17.20;99.90
18163;DHT22;9206;50.994;4.538;2023-07-30T20:07:42;17.20;99.90
18163;DHT22;9206;50.994;4.538;2023-07-30T20:10:31;17.20;99.90
18163;DHT22;9206;50.994;4.538;2023-07-30T20:13:26;17.20;99.90
18163;DHT22;9206;50.994;4.538;2023-07-30T20:20:14;17.20;99.90
18163;DHT22;9206;50.994;4.538;2023-07-30T20:25:34;17.10;99.90
18163;DHT22;9206;50.994;4.538;2023-07-30T20:28:26;17.10;99.90
18163;DHT22;9206;50.994;4.538;2023-07-30T20:31:26;17.20;99.90
18163;DHT22;9206;50.994;4.538;2023-07-30T20:34:22;17.20;99.90
18163;DHT22;9206;50.994;4.538;2023-07-30T20:37:11;17.10;99.90
18163;DHT22;9206;50.994;4.538;2023-07-30T20:40:08;17.10;99.90
18163;DHT22;9206;50.994;4.538;2023-07-30T20:45:55;17.10;99.90
18163;DHT22;9206;50.994;4.538;2023-07-30T20:49:01;17.10;99.90
18163;DHT22;9206;50.994;4.538;2023-07-30T21:05:52;17.00;99.90
18163;DHT22;9206;50.994;4.538;2023-07-30T21:08:52;17.00;99.90
18163;DHT22;9206;50.994;4.538;2023-07-30T21:11:46;17.00;99.90
18163;DHT22;9206;50.994;4.538;2023-07-30T21:14:33;17.00;99.90
18163;DHT22;9206;50.994;4.538;2023-07-30T21:17:27;17.00;99.90
18163;DHT22;9206;50.994;4.538;2023-07-30T21:20:17;17.00;99.90
18163;DHT22;9206;50.994;4.538;2023-07-30T21:23:12;17.00;99.90
18163;DHT22;9206;50.994;4.538;2023-07-30T21:26:32;17.00;99.90
18163;DHT22;9206;50.994;4.538;2023-07-30T21:33:07;17.00;99.90
18163;DHT22;9206;50.994;4.538;2023-07-30T21:36:09;17.00;99.90
18163;DHT22;9206;50.994;4.538;2023-07-30T21:39:08;17.00;99.90
18163;DHT22;9206;50.994;4.538;2023-07-30T21:41:57;17.00;99.90
18163;DHT22;9206;50.994;4.538;2023-07-30T21:44:47;17.00;99.90
18163;DHT22;9206;50.994;4.538;2023-07-30T21:47:38;16.90;99.90
18163;DHT22;9206;50.994;4.538;2023-07-30T21:50:31;17.00;99.90
18163;DHT22;9206;50.994;4.538;2023-07-30T21:53:28;17.00;99.90
18163;DHT22;9206;50.994;4.538;2023-07-30T21:56:26;17.00;99.90
18163;DHT22;9206;50.994;4.538;2023-07-30T21:59:13;17.00;99.90
18163;DHT22;9206;50.994;4.538;2023-07-30T22:05:16;17.00;99.90
18163;DHT22;9206;50.994;4.538;2023-07-30T22:08:52;16.90;99.90
18163;DHT22;9206;50.994;4.538;2023-07-30T22:11:31;16.90;99.90
18163;DHT22;9206;50.994;4.538;2023-07-30T22:14:19;16.90;99.90
18163;DHT22;9206;50.994;4.538;2023-07-30T22:17:09;16.90;99.90
18163;DHT22;9206;50.994;4.538;2023-07-30T22:20:00;16.90;99.90
18163;DHT22;9206;50.994;4.538;2023-07-30T22:22:58;16.90;99.90
18163;DHT22;9206;50.994;4.538;2023-07-30T22:26:02;16.90;99.90
18163;DHT22;9206;50.994;4.538;2023-07-30T22:28:54;16.80;99.90
18163;DHT22;9206;50.994;4.538;2023-07-30T22:31:58;16.80;99.90
18163;DHT22;9206;50.994;4.538;2023-07-30T22:34:48;16.80;99.90
18163;DHT22;9206;50.994;4.538;2023-07-30T22:37:36;16.80;99.90
18163;DHT22;9206;50.994;4.538;2023-07-30T22:40:41;16.80;99.90
18163;DHT22;9206;50.994;4.538;2023-07-30T22:43:51;16.80;99.90
18163;DHT22;9206;50.994;4.538;2023-07-30T22:46:46;16.80;99.90
18163;DHT22;9206;50.994;4.538;2023-07-30T22:49:33;16.90;99.90
18163;DHT22;9206;50.994;4.538;2023-07-30T22:52:21;16.90;99.90
18163;DHT22;9206;50.994;4.538;2023-07-30T22:55:25;16.90;99.90
18163;DHT22;9206;50.994;4.538;2023-07-30T23:02:12;16.90;99.90
18163;DHT22;9206;50.994;4.538;2023-07-30T23:05:07;16.80;99.90
18163;DHT22;9206;50.994;4.538;2023-07-30T23:07:57;16.90;99.90
18163;DHT22;9206;50.994;4.538;2023-07-30T23:10:45;16.80;99.90
18163;DHT22;9206;50.994;4.538;2023-07-30T23:13:45;16.90;99.90
18163;DHT22;9206;50.994;4.538;2023-07-30T23:16:36;16.90;99.90
18163;DHT22;9206;50.994;4.538;2023-07-30T23:19:28;16.90;99.90
18163;DHT22;9206;50.994;4.538;2023-07-30T23:22:18;16.90;99.90
18163;DHT22;9206;50.994;4.538;2023-07-30T23:25:24;16.90;99.90
18163;DHT22;9206;50.994;4.538;2023-07-30T23:28:13;16.80;99.90
18163;DHT22;9206;50.994;4.538;2023-07-30T23:31:07;16.80;99.90
18163;DHT22;9206;50.994;4.538;2023-07-30T23:34:01;16.80;99.90
18163;DHT22;9206;50.994;4.538;2023-07-30T23:37:07;16.70;99.90
18163;DHT22;9206;50.994;4.538;2023-07-30T23:40:30;16.70;99.90
18163;DHT22;9206;50.994;4.538;2023-07-30T23:43:50;16.60;99.90
18163;DHT22;9206;50.994;4.538;2023-07-30T23:46:38;16.50;99.90
18163;DHT22;9206;50.994;4.538;2023-07-30T23:49:29;16.50;99.90
18163;DHT22;9206;50.994;4.538;2023-07-30T23:52:46;16.40;99.90
18163;DHT22;9206;50.994;4.538;2023-07-30T23:55:39;16.40;99.90
18163;DHT22;9206;50.994;4.538;2023-07-30T23:58:46;16.40;99.90
